EGLLLXGB

Guest
Details From EGLL - London Heathrow
To LXGB - Gibraltar
Flight Number -
Tags Generated
Created
Modified
Stats Distance 944 nm / 1,749 km
Max Altitude 0 ft / 0 m
Waypoints 6
Social Downloads 23
Likes 0
Share VATSIM

Download

Looking for another format? Having issues loading an existing format? Contact us
Advertisement - Login to hide

Notes

Generated

Route

EGLL LAGAB XALON NATPA BRIKE LXGB

ID Type Via Altitude Latitude Longitude Leg Dist Tot Dist Heading (true) Name
O EGLL APT - 0 ft / 0 m 51.46477˚ -0.48695˚ - 0 nm - -
LAGAB FIX - 0 ft / 0 m 47.88944˚ -1.99167˚ 222 nm 222 nm 196° / 195° -
XALON FIX - 0 ft / 0 m 43.80745˚ -3.45096˚ 252 nm 475 nm 195° / 193° -
NATPA FIX - 0 ft / 0 m 39.91889˚ -4.58639˚ 238 nm 714 nm 193° / 192° -
BRIKE FIX - 0 ft / 0 m 36.50478˚ -5.41645˚ 208 nm 922 nm 191° / 191° -
O LXGB APT - 0 ft / 0 m 36.15080˚ -5.35977˚ 21 nm 944 nm 173° / 173° -

Altitude Profile

Advertisement - Login to hide

Weather


0- 5 10 15 20 25 30 35+ Temperature / ° C

Clouds and Precipitation
Forecast for 2017-12-12 12:00 UTC. Updated an hour ago

Ground ~20,000 ft ~40,000 ft Winds

EGLL

Details ICAO EGLL (LHR)
Name London Heathrow
Region United Kingdom
Timezone Europe/London (UTC+0.0)
Stats Elevation 83 ft / 25 m (AMSL)
Location 51.471218° -0.460978°
Runways 2
Magnetic Variation 0.561° W

METAR

EGLL 121150Z AUTO 22006KT 9999 NCD 02/M01 Q1010 NOSIG

Decode

TAF

TAF EGLL 121103Z 1212/1318 21006KT CAVOK PROB40 TEMPO 1216/1222 7000 TEMPO 1222/1306 7000 -RA BKN012 PROB30 TEMPO 1300/1306 20015G25KT 3000 RADZ BKN005 TEMPO 1310/1316 22018G28KT 7000 SHRA BKN012 BECMG 1312/1315 27012KT PROB30 TEMPO 1313/1316 4000 +SHRA

Decode

Departure Runways

ID Width Length Bearing (true) Bearing (mag) Surface Threshold Offset Overrun Length
09L 164 ft / 50 m 12,811 ft / 3,905 m 89.64° 90.20° Asphalt 1,004 ft / 306 m 0 ft / 0 m
09R 164 ft / 50 m 12,019 ft / 3,663 m 89.67° 90.23° Asphalt 1,007 ft / 307 m 0 ft / 0 m
27L 164 ft / 50 m 12,019 ft / 3,663 m 269.71° 270.27° Asphalt 0 ft / 0 m 69 ft / 21 m
27R 164 ft / 50 m 12,811 ft / 3,905 m 269.69° 270.25° Asphalt 0 ft / 0 m 69 ft / 21 m

LXGB

Details ICAO LXGB (GIB)
Name Gibraltar
Region Gibralter
Timezone Europe/Gibraltar (UTC+1.0)
Stats Elevation 15 ft / 5 m (AMSL)
Location 36.151209° -5.349664°
Runways 1
Magnetic Variation 1.123° W

METAR

LXGB 121150Z 32006KT 9999 FEW025 15/03 Q1017 NOSIG

Decode

TAF

Not found

Destination Runways

ID Width Length Bearing (true) Bearing (mag) Surface Threshold Offset Overrun Length
27 151 ft / 46 m 5,992 ft / 1,826 m 267.56° 268.68° Asphalt 367 ft / 112 m 89 ft / 27 m
9 151 ft / 46 m 5,992 ft / 1,826 m 87.54° 88.66° Asphalt 299 ft / 91 m 52 ft / 16 m

Popular Alternatives